Flin Flon, Canada
Current Conditions -  °F | °C
As of 6:00 PM on Sunday 21 Dec 2014 (Local Time) from CYFO Reporting Station
Light Snow Light Snow  
Wind Chill: 21°   Ceiling: 7000
Heat Index: 21°   Visibility: 10mi
Dew Point: 19°   Wind: 3mph
Humidity: 93%   Direction: 40°NE
Pressure: 29.6"   Gusts: NA
Location:  54.77°N, 101.88°W
Report Text: CYFO 220000Z 04003KT 350V060 10SM -SN FEW010 SCT020 BKN070 M06/M07 A2960 RMK SF1SC3AC3 LAST OBS/NEXT 221200UTC SNW COV/MUCH LOOSE SLP045
Loading
Personal Weather Stations






























Interactive Weather Map New forecast layout! Learn more

10-Day Weather Forecast

Advertisements
Track Severe Weather on mobile